createdAt,value
2023-04-01T00:01:50.929Z,98901.03
2023-04-01T00:04:18.116Z,98909.88
2023-04-01T00:06:45.649Z,98903.72
2023-04-01T00:09:12.857Z,98904.53
2023-04-01T00:11:40.565Z,98904.72
2023-04-01T00:14:08.545Z,98904.72
2023-04-01T00:16:36.128Z,98902.03
2023-04-01T00:19:03.664Z,98908.41
2023-04-01T00:21:31.312Z,98908.41
2023-04-01T00:23:58.790Z,98907.59
2023-04-01T00:26:26.388Z,98908.41
2023-04-01T00:28:53.608Z,98900.59
2023-04-01T00:31:21.471Z,98906.78
2023-04-01T00:33:49.028Z,98904.09
2023-04-01T00:36:19.034Z,98893.63
2023-04-01T00:38:46.920Z,98898.09
2023-04-01T00:41:16.546Z,98898.09
2023-04-01T00:43:45.977Z,98898.09
2023-04-01T00:46:13.374Z,98899.97
2023-04-01T00:48:43.447Z,98906.97
2023-04-01T00:51:14.026Z,98896.47
2023-04-01T00:53:44.876Z,98907.97
2023-04-01T00:56:15.490Z,98896.47
2023-04-01T00:58:45.708Z,98899.34
2023-04-01T01:01:13.050Z,98903.66
2023-04-01T01:03:40.843Z,98902.03
2023-04-01T01:06:22.780Z,98910.03
2023-04-01T01:09:14.106Z,98900.38
2023-04-01T01:11:44.734Z,98899.56
2023-04-01T01:14:18.239Z,98903.22
2023-04-01T01:16:48.423Z,98902.41
2023-04-01T01:19:27.547Z,98902.41
2023-04-01T01:22:29.175Z,98904.25
2023-04-01T01:25:14.390Z,98907.75
2023-04-01T01:27:43.705Z,98902.63
2023-04-01T01:30:20.111Z,98898.28
2023-04-01T01:32:54.394Z,98903.66
2023-04-01T01:35:41.690Z,98910.00
2023-04-01T01:38:15.774Z,98907.31
2023-04-01T01:40:45.497Z,98907.31
2023-04-01T01:43:16.257Z,98903.00
2023-04-01T01:45:50.699Z,98919.88
2023-04-01T01:48:18.384Z,98917.19
2023-04-01T01:50:46.714Z,98906.50
2023-04-01T01:53:14.490Z,98912.88
2023-04-01T01:55:46.721Z,98910.41
2023-04-01T01:58:30.028Z,98909.59
2023-04-01T02:01:00.857Z,98921.09
2023-04-01T02:03:30.677Z,98912.44
2023-04-01T02:06:00.946Z,98913.25
2023-04-01T02:08:43.706Z,98923.94
2023-04-01T02:11:13.002Z,98924.78
2023-04-01T02:13:57.280Z,98920.66
2023-04-01T02:16:30.957Z,98922.50
2023-04-01T02:19:00.085Z,98920.88
2023-04-01T02:21:31.161Z,98926.22
2023-04-01T02:23:59.400Z,98923.53
2023-04-01T02:26:27.487Z,98921.88
2023-04-01T02:28:55.656Z,98913.84
2023-04-01T02:31:23.762Z,98918.38
2023-04-01T02:33:51.076Z,98921.88
2023-04-01T02:36:18.467Z,98920.22
2023-04-01T02:38:46.770Z,98925.56
2023-04-01T02:41:14.036Z,98926.38
2023-04-01T02:43:41.272Z,98930.09
2023-04-01T02:46:08.472Z,98928.25
2023-04-01T02:48:35.681Z,98931.13
2023-04-01T02:51:02.868Z,98937.28
2023-04-01T02:53:30.390Z,98936.47
2023-04-01T02:55:57.638Z,98939.16
2023-04-01T02:58:24.832Z,98943.66
2023-04-01T03:00:52.081Z,98940.16
2023-04-01T03:03:19.391Z,98949.00
2023-04-01T03:05:46.992Z,98944.66
2023-04-01T03:08:14.210Z,98948.38
2023-04-01T03:10:41.425Z,98944.88
2023-04-01T03:13:08.639Z,98947.53
2023-04-01T03:15:36.057Z,98951.44
2023-04-01T03:18:04.268Z,98957.63
2023-04-01T03:20:31.584Z,98955.94
2023-04-01T03:22:58.741Z,98966.47
2023-04-01T03:25:26.105Z,98969.13
2023-04-01T03:27:53.333Z,98971.81
2023-04-01T03:30:20.695Z,98972.16
2023-04-01T03:32:48.082Z,98978.34
2023-04-01T03:35:15.623Z,98980.00
2023-04-01T03:37:42.821Z,98981.84
2023-04-01T03:40:10.659Z,98980.00
2023-04-01T03:42:38.468Z,98986.81
2023-04-01T03:45:06.025Z,98989.88
2023-04-01T03:47:33.275Z,98998.72
2023-04-01T03:50:00.854Z,98991.34
2023-04-01T03:52:28.054Z,98997.72
2023-04-01T03:54:55.247Z,99006.56
2023-04-01T03:57:22.524Z,99006.56
2023-04-01T03:59:49.792Z,99010.06
2023-04-01T04:02:17.035Z,99005.53
2023-04-01T04:04:44.288Z,99009.84
2023-04-01T04:07:11.518Z,99013.56
2023-04-01T04:09:38.715Z,99019.72
2023-04-01T04:12:06.522Z,99022.41
2023-04-01T04:14:33.726Z,99018.91
2023-04-01T04:17:00.908Z,99021.56
2023-04-01T04:19:28.117Z,99022.59
2023-04-01T04:21:55.350Z,99027.75
2023-04-01T04:24:22.576Z,99030.63
2023-04-01T04:26:49.736Z,99031.25
2023-04-01T04:29:16.940Z,99026.91
2023-04-01T04:31:44.679Z,99036.59
2023-04-01T04:34:11.907Z,99036.59
2023-04-01T04:36:39.085Z,99045.63
2023-04-01T04:39:06.261Z,99042.97
2023-04-01T04:41:34.141Z,99046.44
2023-04-01T04:44:02.551Z,99046.44
2023-04-01T04:46:29.883Z,99050.78
2023-04-01T04:48:57.101Z,99056.13
2023-04-01T04:51:24.657Z,99053.44
2023-04-01T04:53:53.018Z,99057.16
2023-04-01T04:56:21.724Z,99060.66
2023-04-01T04:58:49.458Z,99063.31
2023-04-01T05:01:17.434Z,99056.13
2023-04-01T05:03:44.874Z,99071.34
2023-04-01T05:06:14.086Z,99065.16
2023-04-01T05:08:42.758Z,99074.00
2023-04-01T05:11:15.543Z,99071.34
2023-04-01T05:13:43.407Z,99076.69
2023-04-01T05:16:16.165Z,99081.84
2023-04-01T05:18:43.953Z,99080.00
2023-04-01T05:21:12.669Z,99080.00
2023-04-01T05:23:39.845Z,99087.22
2023-04-01T05:26:08.870Z,99085.34
2023-04-01T05:28:36.056Z,99089.69
2023-04-01T05:31:04.148Z,99092.56
2023-04-01T05:33:31.868Z,99089.88
2023-04-01T05:36:07.699Z,99099.56
2023-04-01T05:38:34.903Z,99095.03
2023-04-01T05:41:03.532Z,99103.88
2023-04-01T05:43:31.199Z,99099.34
2023-04-01T05:45:58.886Z,99109.00
2023-04-01T05:48:26.166Z,99104.69
2023-04-01T05:50:53.362Z,99112.72
2023-04-01T05:53:20.626Z,99111.88
2023-04-01T05:55:47.827Z,99112.72
2023-04-01T05:58:15.009Z,99116.22
2023-04-01T06:00:42.220Z,99114.34
2023-04-01T06:03:09.531Z,99113.53
